createdAt,value
2022-12-27T00:00:16.133Z,4.09
2022-12-27T00:10:17.534Z,4.04
2022-12-27T00:20:18.898Z,3.98
2022-12-27T00:30:20.239Z,3.97
2022-12-27T00:40:21.626Z,3.97
2022-12-27T00:50:23.016Z,3.91
2022-12-27T01:00:24.629Z,3.85
2022-12-27T01:10:26.033Z,3.88
2022-12-27T01:20:27.435Z,3.86
2022-12-27T01:30:28.791Z,3.87
2022-12-27T01:40:30.165Z,3.79
2022-12-27T01:50:38.918Z,3.82
2022-12-27T02:00:43.827Z,3.76
2022-12-27T02:10:46.286Z,3.80
2022-12-27T02:20:56.505Z,3.79
2022-12-27T02:31:10.766Z,3.73
2022-12-27T02:41:31.026Z,3.77
2022-12-27T02:52:19.023Z,3.79
2022-12-27T03:02:53.951Z,3.83
2022-12-27T03:13:29.182Z,3.78
2022-12-27T03:23:49.445Z,3.84
2022-12-27T03:33:59.656Z,3.90
2022-12-27T03:44:04.584Z,3.92
2022-12-27T03:54:27.455Z,3.85
2022-12-27T04:04:28.997Z,3.91
2022-12-27T04:14:48.711Z,3.91
2022-12-27T04:25:08.540Z,3.90
2022-12-27T04:35:09.893Z,3.91
2022-12-27T04:45:29.754Z,3.94
2022-12-27T04:55:31.196Z,3.92
2022-12-27T05:05:34.274Z,3.99
2022-12-27T05:15:35.662Z,4.08
2022-12-27T05:25:44.919Z,4.11
2022-12-27T05:35:46.353Z,4.17
2022-12-27T05:45:47.715Z,4.20
2022-12-27T05:55:59.209Z,4.33
2022-12-27T06:06:02.319Z,4.31
2022-12-27T06:16:05.323Z,4.39
2022-12-27T06:26:09.327Z,4.33
2022-12-27T06:36:14.226Z,4.38
2022-12-27T06:46:18.292Z,4.34
2022-12-27T06:56:22.011Z,4.34
2022-12-27T07:06:25.352Z,4.34
2022-12-27T07:16:28.639Z,4.31
2022-12-27T07:26:30.804Z,4.29
2022-12-27T07:36:38.174Z,4.30
2022-12-27T07:46:39.948Z,4.28
2022-12-27T07:56:41.299Z,4.30
2022-12-27T08:06:42.707Z,4.28
2022-12-27T08:16:44.327Z,4.31
2022-12-27T08:26:45.802Z,4.39
2022-12-27T08:36:55.588Z,4.41
2022-12-27T08:46:57.763Z,4.46
2022-12-27T08:56:59.201Z,4.55
2022-12-27T09:07:00.573Z,4.64
2022-12-27T09:17:01.963Z,4.75
2022-12-27T09:27:03.508Z,4.87
2022-12-27T09:37:04.887Z,5.01
2022-12-27T09:47:14.751Z,5.12
2022-12-27T09:57:33.144Z,5.19
2022-12-27T10:07:49.134Z,5.28
2022-12-27T10:18:18.550Z,5.42
2022-12-27T10:28:28.988Z,5.47
2022-12-27T10:38:34.975Z,5.68
2022-12-27T10:48:54.642Z,5.68
2022-12-27T10:59:11.698Z,5.84
2022-12-27T11:09:24.257Z,5.91
2022-12-27T11:19:27.366Z,6.07
2022-12-27T11:29:32.032Z,6.18
2022-12-27T11:39:45.719Z,6.26
2022-12-27T11:50:13.065Z,6.34
2022-12-27T12:00:27.018Z,6.46
2022-12-27T12:10:55.311Z,6.56
2022-12-27T12:21:24.998Z,6.64
2022-12-27T12:32:12.374Z,6.58
2022-12-27T12:42:19.830Z,6.54
2022-12-27T12:52:42.700Z,6.55
2022-12-27T13:03:03.096Z,6.59
2022-12-27T13:13:20.465Z,6.57
2022-12-27T13:24:15.226Z,6.55
2022-12-27T13:34:25.000Z,6.61
2022-12-27T13:45:03.403Z,6.61
2022-12-27T13:55:51.195Z,6.76
2022-12-27T14:06:01.807Z,6.72
2022-12-27T14:16:15.791Z,6.76
2022-12-27T14:26:19.935Z,6.74
2022-12-27T14:37:01.538Z,6.72
2022-12-27T14:47:51.558Z,6.68
2022-12-27T14:58:11.414Z,6.63
2022-12-27T15:08:41.026Z,6.61
2022-12-27T15:18:50.076Z,6.59
2022-12-27T15:29:17.671Z,6.62
2022-12-27T15:39:34.075Z,6.65
2022-12-27T15:50:20.099Z,6.60
2022-12-27T16:00:24.184Z,6.66
2022-12-27T16:10:47.971Z,6.67
2022-12-27T16:21:03.414Z,6.64
2022-12-27T16:31:12.412Z,6.70
2022-12-27T16:41:41.877Z,6.63
2022-12-27T16:52:02.092Z,6.64
2022-12-27T17:02:03.613Z,6.64
2022-12-27T17:12:13.221Z,6.63
2022-12-27T17:22:16.791Z,6.67
2022-12-27T17:32:27.273Z,6.60
2022-12-27T17:42:58.032Z,6.63
2022-12-27T17:53:34.423Z,6.54
2022-12-27T18:03:42.191Z,6.42
2022-12-27T18:13:52.711Z,6.39
2022-12-27T18:23:55.206Z,6.30
2022-12-27T18:34:00.665Z,6.23
2022-12-27T18:44:02.443Z,6.09
2022-12-27T18:54:22.217Z,6.05
2022-12-27T19:04:31.845Z,6.00
2022-12-27T19:14:43.147Z,5.85
2022-12-27T19:24:44.957Z,5.74
2022-12-27T19:34:50.042Z,5.70
2022-12-27T19:44:51.399Z,5.66
2022-12-27T19:55:00.206Z,5.62
2022-12-27T20:05:01.575Z,5.58
2022-12-27T20:15:03.162Z,5.48
2022-12-27T20:25:04.997Z,5.42
2022-12-27T20:35:06.946Z,5.31
2022-12-27T20:45:09.105Z,5.24
2022-12-27T20:55:12.426Z,5.14
2022-12-27T21:05:13.898Z,5.07
2022-12-27T21:15:15.395Z,5.07
2022-12-27T21:25:16.774Z,5.14
2022-12-27T21:35:18.137Z,5.05
2022-12-27T21:45:19.488Z,5.05
2022-12-27T21:55:20.844Z,5.07
2022-12-27T22:05:22.232Z,5.07
2022-12-27T22:15:23.602Z,5.05
2022-12-27T22:25:27.286Z,5.03
2022-12-27T22:35:29.997Z,5.04
2022-12-27T22:45:31.396Z,5.05
2022-12-27T22:55:32.733Z,5.03
2022-12-27T23:05:34.113Z,5.02
2022-12-27T23:15:35.486Z,5.13
2022-12-27T23:25:36.898Z,5.19
2022-12-27T23:35:38.269Z,5.22
2022-12-27T23:45:39.615Z,5.24
2022-12-27T23:55:40.966Z,5.26
